Time;durP1;ratioP1;P1;durP2;ratioP2;P2;SDS_P1;SDS_P2;PMS_P1;PMS_P2;Temp;Humidity;BMP_temperature;BMP_pressure;BME280_temperature;BME280_humidity;BME280_pressure;Samples;Min_cycle;Max_cycle;Signal;HPM_P1;HPM_P2
2022/06/12 00:00:12;;;;;;;5.43;3.10;;;13.90;99.90;;;;;;4999687;28;20410;-65
2022/06/12 00:02:39;;;;;;;5.60;3.22;;;13.90;99.90;;;;;;5011527;28;20057;-66
2022/06/12 00:05:06;;;;;;;3.97;3.20;;;13.80;99.90;;;;;;5000864;28;20152;-65
2022/06/12 00:07:31;;;;;;;6.00;3.20;;;13.80;99.90;;;;;;4995228;28;20092;-65
2022/06/12 00:09:57;;;;;;;5.15;3.92;;;13.80;99.90;;;;;;5001181;28;20125;-65
2022/06/12 00:12:23;;;;;;;3.78;3.38;;;13.70;99.90;;;;;;5007689;28;20165;-66
2022/06/12 00:14:48;;;;;;;6.78;3.50;;;13.70;99.90;;;;;;5013998;28;20080;-65
2022/06/12 00:17:14;;;;;;;5.65;4.63;;;13.70;99.90;;;;;;5013073;28;20401;-65
2022/06/12 00:19:43;;;;;;;5.05;4.05;;;13.70;99.90;;;;;;5024686;28;20039;-65
2022/06/12 00:22:08;;;;;;;5.82;4.05;;;13.70;99.90;;;;;;4993284;28;20022;-65
2022/06/12 00:24:35;;;;;;;5.65;3.72;;;13.60;99.90;;;;;;5015762;28;20255;-65
2022/06/12 00:27:03;;;;;;;4.97;4.05;;;13.60;99.90;;;;;;5016230;28;20374;-65
2022/06/12 00:29:32;;;;;;;3.97;3.58;;;13.60;99.90;;;;;;5014753;28;20496;-65
2022/06/12 00:32:09;;;;;;;5.00;3.72;;;13.50;99.90;;;;;;5013517;28;20533;-65
2022/06/12 00:34:46;;;;;;;5.00;3.60;;;13.50;99.90;;;;;;5007093;28;20026;-65
2022/06/12 00:37:13;;;;;;;4.50;4.10;;;13.50;99.90;;;;;;4998935;28;20037;-65
2022/06/12 00:39:41;;;;;;;5.80;4.50;;;13.60;99.90;;;;;;5013627;28;20096;-65
2022/06/12 00:42:16;;;;;;;5.00;4.50;;;13.60;99.90;;;;;;5022390;28;20497;-65
2022/06/12 00:44:42;;;;;;;5.80;4.18;;;13.70;99.90;;;;;;5004775;28;20038;-65
2022/06/12 00:47:12;;;;;;;5.93;4.50;;;13.70;99.90;;;;;;5015007;28;20034;-65
2022/06/12 00:49:46;;;;;;;6.40;4.55;;;13.70;99.90;;;;;;5024870;28;20029;-65
2022/06/12 00:52:14;;;;;;;5.45;4.80;;;13.70;99.90;;;;;;5005629;28;20508;-65
2022/06/12 00:54:43;;;;;;;6.70;4.70;;;13.60;99.90;;;;;;5015732;28;20037;-65
2022/06/12 00:57:08;;;;;;;6.05;4.95;;;13.60;99.90;;;;;;5019666;28;20406;-65
2022/06/12 00:59:42;;;;;;;5.93;4.60;;;13.60;99.90;;;;;;5006470;28;20045;-60
2022/06/12 01:02:12;;;;;;;5.00;4.43;;;13.60;99.90;;;;;;4997093;28;20036;-60
2022/06/12 01:07:27;;;;;;;7.18;4.57;;;13.50;99.90;;;;;;5000334;28;20516;-60
2022/06/12 01:09:57;;;;;;;5.65;4.57;;;13.40;99.90;;;;;;4992586;28;20034;-62
2022/06/12 01:12:28;;;;;;;6.50;5.10;;;13.40;99.90;;;;;;5000467;28;20279;-62
2022/06/12 01:14:58;;;;;;;5.07;4.50;;;13.30;99.90;;;;;;5000076;28;20577;-62
2022/06/12 01:17:26;;;;;;;7.20;5.05;;;13.30;99.90;;;;;;4998782;28;20034;-62
2022/06/12 01:20:01;;;;;;;6.93;5.63;;;13.30;99.90;;;;;;5003493;28;20489;-62
2022/06/12 01:22:36;;;;;;;5.65;4.22;;;13.30;99.90;;;;;;4987237;28;20093;-62
2022/06/12 01:25:34;;;;;;;5.80;4.68;;;13.20;99.90;;;;;;4997954;28;20810;-62
2022/06/12 01:28:34;;;;;;;6.93;5.28;;;13.20;99.90;;;;;;4995232;28;20029;-61
2022/06/12 01:31:10;;;;;;;5.32;4.45;;;13.20;99.90;;;;;;5002999;28;20379;-62
2022/06/12 01:33:58;;;;;;;7.50;5.05;;;13.10;99.90;;;;;;4996062;28;20022;-62
2022/06/12 01:36:30;;;;;;;6.55;5.22;;;13.00;99.90;;;;;;4990323;28;20028;-62
2022/06/12 01:39:24;;;;;;;8.30;5.95;;;13.00;99.90;;;;;;4993536;28;20454;-62
2022/06/12 01:42:28;;;;;;;6.10;5.28;;;13.00;99.90;;;;;;5014820;28;20041;-61
2022/06/12 01:45:16;;;;;;;6.97;4.57;;;13.00;99.90;;;;;;5009037;28;20048;-61
2022/06/12 01:47:57;;;;;;;7.65;5.15;;;12.90;99.90;;;;;;4999365;28;20034;-62
2022/06/12 01:50:43;;;;;;;6.45;5.43;;;12.90;99.90;;;;;;5026512;28;20018;-62
2022/06/12 01:53:18;;;;;;;;;;;12.90;99.90;;;;;;5004265;28;20033;-62
2022/06/12 01:55:51;;;;;;;11.70;6.18;;;12.80;99.90;;;;;;5027447;28;20336;-62
2022/06/12 01:58:37;;;;;;;7.78;5.32;;;12.80;99.90;;;;;;5006221;28;20037;-62
2022/06/12 02:01:14;;;;;;;8.77;6.80;;;12.80;99.90;;;;;;5018980;28;20044;-62
2022/06/12 02:03:52;;;;;;;7.43;5.40;;;13.00;99.90;;;;;;5028505;28;20026;-62
2022/06/12 02:06:28;;;;;;;7.00;5.72;;;13.10;99.90;;;;;;4992358;28;20030;-62
2022/06/12 02:09:00;;;;;;;7.65;5.43;;;13.10;99.90;;;;;;5028339;28;20025;-62
2022/06/12 02:14:50;;;;;;;7.68;5.90;;;13.00;99.90;;;;;;5028522;28;20039;-63
2022/06/12 02:17:25;;;;;;;8.63;6.05;;;13.00;99.90;;;;;;5008072;28;20053;-62
2022/06/12 02:19:52;;;;;;;6.03;5.43;;;13.00;99.90;;;;;;4989133;28;20029;-62
2022/06/12 02:22:21;;;;;;;7.55;5.88;;;13.10;99.90;;;;;;5025400;28;20044;-62
2022/06/12 02:24:55;;;;;;;5.60;5.03;;;13.10;99.90;;;;;;5008511;28;20100;-62
2022/06/12 02:27:29;;;;;;;6.50;4.68;;;13.20;99.90;;;;;;5009247;28;20482;-62
2022/06/12 02:29:59;;;;;;;5.88;5.28;;;13.20;99.90;;;;;;4971380;28;20034;-62
2022/06/12 02:32:48;;;;;;;8.15;5.97;;;13.20;99.90;;;;;;4998802;28;20041;-63
2022/06/12 02:35:27;;;;;;;8.25;6.43;;;13.20;99.90;;;;;;5028200;28;20025;-62
2022/06/12 02:37:56;;;;;;;7.68;6.10;;;13.40;99.90;;;;;;5002535;28;20113;-62
2022/06/12 02:40:29;;;;;;;6.72;4.90;;;13.40;99.90;;;;;;5011089;28;20490;-63
2022/06/12 02:42:57;;;;;;;7.22;5.80;;;13.50;99.90;;;;;;5028118;28;20033;-63
2022/06/12 02:45:46;;;;;;;5.82;5.22;;;13.60;99.90;;;;;;4991903;28;20443;-63
2022/06/12 02:48:11;;;;;;;6.80;5.07;;;13.60;99.90;;;;;;4992487;28;20061;-63
2022/06/12 02:51:01;;;;;;;7.68;6.15;;;13.70;99.90;;;;;;5011531;28;20037;-63
2022/06/12 02:54:00;;;;;;;8.52;6.05;;;13.80;99.90;;;;;;4992594;28;20041;-63
2022/06/12 02:56:44;;;;;;;7.28;6.22;;;13.90;99.90;;;;;;4992412;28;20045;-63
2022/06/12 02:59:23;;;;;;;7.75;6.10;;;14.00;99.90;;;;;;5018005;28;20085;-63
2022/06/12 03:02:04;;;;;;;5.75;4.93;;;14.10;99.90;;;;;;4992124;28;20050;-62
2022/06/12 03:04:40;;;;;;;7.85;5.75;;;14.10;99.90;;;;;;4998269;28;20033;-63
2022/06/12 03:07:06;;;;;;;5.68;5.10;;;14.10;99.90;;;;;;5031478;28;20416;-63
2022/06/12 03:09:32;;;;;;;5.90;5.18;;;14.10;99.90;;;;;;5010331;28;20036;-63
2022/06/12 03:11:57;;;;;;;6.97;5.35;;;14.00;99.90;;;;;;5030654;28;20120;-62
2022/06/12 03:14:24;;;;;;;5.57;4.97;;;14.00;99.90;;;;;;5010157;28;20113;-63
2022/06/12 03:16:50;;;;;;;5.85;5.22;;;14.00;99.90;;;;;;5011635;28;20022;-62
2022/06/12 03:19:23;;;;;;;7.28;5.07;;;14.10;99.90;;;;;;5016852;28;20034;-63
2022/06/12 03:22:20;;;;;;;7.55;6.00;;;14.20;99.90;;;;;;4991886;28;20034;-62
2022/06/12 03:25:22;;;;;;;9.13;7.35;;;14.30;99.90;;;;;;5007810;28;20054;-62
2022/06/12 03:28:18;;;;;;;6.60;5.45;;;14.40;99.90;;;;;;4991719;28;20490;-62
2022/06/12 03:30:53;;;;;;;5.43;4.93;;;14.50;99.90;;;;;;5011476;28;20409;-62
2022/06/12 03:33:32;;;;;;;7.33;5.40;;;14.70;99.90;;;;;;4991782;28;20120;-62
2022/06/12 03:36:11;;;;;;;5.63;5.05;;;15.00;99.90;;;;;;4991605;28;20129;-62
2022/06/12 03:38:47;;;;;;;5.68;5.18;;;15.30;99.90;;;;;;4991172;28;20153;-62
2022/06/12 03:41:27;;;;;;;5.65;4.95;;;15.70;99.90;;;;;;5024455;28;20564;-62
2022/06/12 03:44:06;;;;;;;6.82;5.38;;;16.40;99.90;;;;;;5009059;28;20057;-62
2022/06/12 03:46:46;;;;;;;7.97;5.65;;;16.50;99.90;;;;;;5011095;28;20057;-62
2022/06/12 03:49:40;;;;;;;5.40;4.90;;;16.30;99.90;;;;;;5000372;28;20397;-62
2022/06/12 03:52:25;;;;;;;7.45;5.10;;;16.20;99.90;;;;;;5030869;28;20489;-62
2022/06/12 03:55:13;;;;;;;6.75;4.72;;;16.20;99.90;;;;;;5010773;28;20036;-62
2022/06/12 03:57:51;;;;;;;5.88;4.68;;;16.20;99.90;;;;;;4990691;28;20097;-63
2022/06/12 04:00:35;;;;;;;5.20;4.65;;;16.20;99.90;;;;;;5007525;28;20489;-62
2022/06/12 04:03:08;;;;;;;5.45;4.47;;;16.30;99.90;;;;;;4991262;28;20042;-63
2022/06/12 04:05:45;;;;;;;6.20;5.15;;;16.30;99.90;;;;;;5001564;28;20403;-63
2022/06/12 04:08:24;;;;;;;6.85;4.47;;;16.40;99.90;;;;;;4991222;28;20114;-62
2022/06/12 04:10:51;;;;;;;5.90;4.53;;;16.50;99.90;;;;;;4995117;28;20856;-62
2022/06/12 04:13:18;;;;;;;5.35;4.85;;;16.60;99.90;;;;;;5018029;28;20471;-63
2022/06/12 04:15:47;;;;;;;7.25;5.50;;;16.70;99.90;;;;;;5002457;28;20029;-63
2022/06/12 04:18:13;;;;;;;4.47;3.80;;;16.80;99.90;;;;;;5013529;28;20047;-63
2022/06/12 04:20:54;;;;;;;5.07;4.35;;;17.30;99.90;;;;;;4991651;28;20439;-63
2022/06/12 04:23:45;;;;;;;5.90;4.28;;;17.50;99.90;;;;;;5006833;28;20025;-58
2022/06/12 04:26:23;;;;;;;5.03;4.53;;;18.70;99.90;;;;;;4988245;28;20406;-65
2022/06/12 04:28:57;;;;;;;4.95;4.10;;;20.20;99.90;;;;;;4997088;28;20099;-65
2022/06/12 04:31:22;;;;;;;4.97;3.65;;;20.10;96.20;;;;;;5005527;28;20056;-65
2022/06/12 04:34:09;;;;;;;5.05;4.20;;;19.80;97.70;;;;;;5012116;28;20521;-63
2022/06/12 04:36:35;;;;;;;5.93;4.20;;;19.50;98.90;;;;;;4995607;28;20072;-65
2022/06/12 04:39:01;;;;;;;6.63;3.60;;;19.20;99.90;;;;;;5008535;28;20395;-65
2022/06/12 04:41:30;;;;;;;4.72;4.18;;;19.00;99.90;;;;;;5007542;28;20525;-65
2022/06/12 04:43:56;;;;;;;4.30;3.90;;;18.80;99.90;;;;;;5014377;28;20033;-64
2022/06/12 04:46:22;;;;;;;6.63;4.20;;;18.60;99.90;;;;;;4996580;28;20030;-65
2022/06/12 04:48:51;;;;;;;6.25;4.80;;;18.50;99.90;;;;;;5008936;28;20080;-64
2022/06/12 04:51:18;;;;;;;5.53;3.60;;;18.30;99.90;;;;;;5007128;28;20037;-65
2022/06/12 04:53:45;;;;;;;5.97;3.83;;;18.30;99.90;;;;;;5008060;28;20668;-65
2022/06/12 04:56:11;;;;;;;5.32;3.70;;;18.20;99.90;;;;;;4994893;28;20069;-65
2022/06/12 04:58:38;;;;;;;7.03;5.03;;;18.20;99.90;;;;;;5010066;28;20034;-65
2022/06/12 05:01:05;;;;;;;4.95;4.45;;;18.30;99.90;;;;;;4989335;28;20442;-65
2022/06/12 05:03:30;;;;;;;6.97;5.03;;;18.40;99.90;;;;;;5020293;28;20026;-65
2022/06/12 05:05:57;;;;;;;6.60;5.30;;;18.50;99.90;;;;;;4999524;28;20410;-65
2022/06/12 05:08:22;;;;;;;8.32;5.18;;;18.70;99.90;;;;;;5012400;28;20513;-65
2022/06/12 05:10:48;;;;;;;7.30;4.90;;;18.70;99.90;;;;;;5008949;28;20037;-60
2022/06/12 05:13:14;;;;;;;7.70;4.35;;;19.90;99.40;;;;;;5015132;28;20037;-60
2022/06/12 05:15:40;;;;;;;4.72;4.13;;;19.50;98.30;;;;;;5005999;28;20038;-60
2022/06/12 05:18:07;;;;;;;4.55;4.10;;;19.30;99.10;;;;;;5018766;28;20100;-60
2022/06/12 05:20:35;;;;;;;4.35;3.95;;;19.10;99.70;;;;;;5000943;28;20022;-60
2022/06/12 05:23:01;;;;;;;5.43;4.32;;;18.90;99.90;;;;;;5019561;28;20580;-60
2022/06/12 05:25:26;;;;;;;8.20;4.50;;;18.70;99.90;;;;;;5003903;28;20037;-60
2022/06/12 05:27:53;;;;;;;6.75;5.40;;;18.50;99.90;;;;;;5014330;28;20034;-60
2022/06/12 05:30:22;;;;;;;4.80;4.32;;;18.30;99.90;;;;;;5013715;28;20038;-60
2022/06/12 05:32:50;;;;;;;8.50;5.00;;;18.20;99.90;;;;;;5016499;28;20120;-60
2022/06/12 05:35:16;;;;;;;5.00;4.60;;;18.20;99.90;;;;;;5012845;28;20026;-60
2022/06/12 05:37:42;;;;;;;10.85;4.65;;;18.20;99.90;;;;;;5012772;28;20045;-60
2022/06/12 05:40:11;;;;;;;6.03;5.10;;;18.30;99.90;;;;;;5001237;28;20030;-60
2022/06/12 05:42:38;;;;;;;4.97;4.47;;;18.40;99.90;;;;;;5005139;28;20037;-60
2022/06/12 05:45:06;;;;;;;6.05;5.30;;;18.60;99.90;;;;;;5003346;28;20045;-60
2022/06/12 05:47:32;;;;;;;7.57;5.28;;;18.90;99.90;;;;;;5005994;28;20037;-60
2022/06/12 05:49:59;;;;;;;7.00;4.97;;;19.20;99.90;;;;;;5006800;28;20042;-60
2022/06/12 05:52:24;;;;;;;6.25;5.60;;;19.40;99.90;;;;;;5013199;28;20505;-60
2022/06/12 05:54:50;;;;;;;7.07;5.03;;;19.60;99.90;;;;;;5013243;28;20111;-60
2022/06/12 05:57:15;;;;;;;8.23;4.70;;;20.00;99.90;;;;;;5011494;28;20030;-60
2022/06/12 05:59:41;;;;;;;5.20;4.70;;;20.30;99.90;;;;;;5003616;28;20062;-59
2022/06/12 06:02:07;;;;;;;7.97;4.85;;;20.50;99.90;;;;;;5013205;28;20037;-60
2022/06/12 06:04:33;;;;;;;7.53;5.35;;;20.70;99.40;;;;;;5005004;28;20033;-60
2022/06/12 06:06:59;;;;;;;5.82;4.53;;;21.00;97.80;;;;;;5017135;28;20141;-59
2022/06/12 06:09:25;;;;;;;5.15;4.65;;;21.40;95.50;;;;;;5001079;28;20113;-59
2022/06/12 06:11:51;;;;;;;6.28;4.30;;;23.10;87.10;;;;;;5009551;28;20040;-57
2022/06/12 06:14:17;;;;;;;6.57;4.47;;;25.20;73.70;;;;;;5005885;28;20033;-59
2022/06/12 06:16:43;;;;;;;5.00;3.75;;;27.30;54.00;;;;;;5007210;28;20034;-60
2022/06/12 06:19:10;;;;;;;6.93;4.20;;;26.90;51.00;;;;;;5000868;28;20035;-59
2022/06/12 06:21:36;;;;;;;4.75;3.50;;;25.90;50.50;;;;;;4998826;28;20393;-60
2022/06/12 06:24:02;;;;;;;5.00;4.53;;;25.30;52.40;;;;;;5012319;28;20505;-60
2022/06/12 06:26:28;;;;;;;3.45;3.15;;;25.50;56.20;;;;;;5000549;28;20109;-60
2022/06/12 06:28:56;;;;;;;4.45;3.70;;;26.40;52.60;;;;;;5011147;28;20030;-58
2022/06/12 06:31:23;;;;;;;4.32;3.35;;;28.00;45.70;;;;;;5009110;28;20029;-59
2022/06/12 06:33:49;;;;;;;3.80;2.75;;;27.20;45.90;;;;;;5018055;28;20052;-60
2022/06/12 06:36:15;;;;;;;5.10;3.20;;;29.40;39.60;;;;;;5010252;28;20029;-60
2022/06/12 06:38:41;;;;;;;5.75;3.58;;;28.70;38.90;;;;;;5017303;28;20029;-60
2022/06/12 06:41:07;;;;;;;3.50;2.80;;;29.80;34.50;;;;;;5000314;28;20050;-60
2022/06/12 06:46:17;;;;;;;4.13;2.67;;;30.90;26.30;;;;;;5000004;28;20393;-60
2022/06/12 06:48:43;;;;;;;4.40;3.00;;;29.70;28.20;;;;;;5010807;28;20042;-60
2022/06/12 06:51:09;;;;;;;5.28;3.67;;;28.50;28.70;;;;;;4999486;28;20042;-60
2022/06/12 06:53:34;;;;;;;3.63;3.05;;;27.20;31.40;;;;;;5007892;28;20040;-60
2022/06/12 06:56:00;;;;;;;3.95;3.55;;;26.20;33.90;;;;;;5001692;28;20733;-60
2022/06/12 06:58:30;;;;;;;4.80;3.60;;;25.70;37.50;;;;;;5023859;28;20056;-60
2022/06/12 07:00:55;;;;;;;3.97;3.55;;;25.50;38.90;;;;;;4995908;28;20045;-60
2022/06/12 07:03:21;;;;;;;3.38;3.00;;;25.30;39.00;;;;;;5020268;28;20041;-60
2022/06/12 07:05:48;;;;;;;3.85;3.47;;;25.20;39.10;;;;;;4997626;28;20620;-59
2022/06/12 07:08:15;;;;;;;5.07;3.40;;;25.00;39.30;;;;;;5003994;28;20045;-60
2022/06/12 07:10:41;;;;;;;4.72;3.70;;;25.00;40.20;;;;;;4994261;28;20026;-59
2022/06/12 07:13:06;;;;;;;5.30;3.55;;;25.00;40.50;;;;;;4995828;28;20026;-59
2022/06/12 07:15:33;;;;;;;4.47;3.30;;;24.60;39.30;;;;;;4996956;28;20042;-59
2022/06/12 07:17:59;;;;;;;4.82;3.50;;;24.30;41.40;;;;;;4997944;28;20655;-59
2022/06/12 07:20:29;;;;;;;5.57;4.05;;;24.10;41.30;;;;;;5002672;28;20034;-59
2022/06/12 07:22:54;;;;;;;6.55;4.00;;;24.00;41.70;;;;;;5028298;28;20025;-60
2022/06/12 07:25:20;;;;;;;5.45;2.95;;;24.20;42.00;;;;;;4993925;28;20053;-59
2022/06/12 07:27:47;;;;;;;3.17;2.90;;;24.20;41.40;;;;;;5009649;28;20125;-59
2022/06/12 07:30:17;;;;;;;5.20;4.03;;;24.20;42.00;;;;;;5012283;28;20116;-59
2022/06/12 07:32:43;;;;;;;4.20;3.83;;;24.00;41.50;;;;;;5029384;28;20450;-53
2022/06/12 07:35:09;;;;;;;5.32;4.25;;;23.70;42.50;;;;;;4995236;28;20110;-56
2022/06/12 07:37:36;;;;;;;4.22;3.58;;;23.40;44.10;;;;;;5009595;28;20034;-55
2022/06/12 07:40:07;;;;;;;4.22;3.42;;;23.20;46.70;;;;;;5014426;28;20109;-56
2022/06/12 07:42:33;;;;;;;4.65;3.63;;;23.00;47.60;;;;;;4990577;28;20046;-56
2022/06/12 07:44:58;;;;;;;3.75;3.45;;;22.90;48.70;;;;;;5015062;28;20030;-50
2022/06/12 07:47:24;;;;;;;4.50;3.55;;;22.80;49.60;;;;;;5029245;28;20112;-55
2022/06/12 07:49:50;;;;;;;6.35;3.55;;;22.90;50.30;;;;;;4996582;28;20041;-53
2022/06/12 07:52:16;;;;;;;5.75;4.05;;;23.20;49.40;;;;;;5029364;28;20089;-53
2022/06/12 07:54:42;;;;;;;5.72;3.90;;;23.50;47.30;;;;;;5009205;28;20032;-52
2022/06/12 07:57:08;;;;;;;5.35;3.75;;;23.80;45.50;;;;;;5009366;28;20045;-52
2022/06/12 07:59:34;;;;;;;6.18;3.83;;;24.00;44.30;;;;;;5023082;28;20026;-52
2022/06/12 08:01:59;;;;;;;5.22;3.83;;;24.30;43.60;;;;;;5010396;28;20041;-52
2022/06/12 08:04:25;;;;;;;5.05;3.80;;;24.40;42.80;;;;;;5027000;28;20026;-52
2022/06/12 08:06:51;;;;;;;4.57;3.50;;;24.50;42.30;;;;;;5010175;28;20066;-52
2022/06/12 08:09:17;;;;;;;4.40;3.47;;;24.50;40.90;;;;;;5026770;28;20026;-50
2022/06/12 08:11:46;;;;;;;4.80;3.63;;;24.60;40.20;;;;;;5029308;28;20035;-56
2022/06/12 08:14:12;;;;;;;3.78;3.42;;;24.60;40.10;;;;;;5007788;28;20030;-52
2022/06/12 08:16:39;;;;;;;3.88;3.30;;;24.60;40.50;;;;;;5009505;28;20164;-55
2022/06/12 08:20:24;;;;;;;4.75;3.50;;;24.40;41.60;;;;;;5026963;28;20041;-56
2022/06/12 08:21:50;;;;;;;4.72;3.53;;;24.30;42.30;;;;;;5017966;28;20033;-55
2022/06/12 08:24:16;;;;;;;8.68;3.58;;;24.10;43.40;;;;;;5026588;28;20118;-54
2022/06/12 08:26:41;;;;;;;3.88;3.45;;;23.90;44.10;;;;;;5028949;28;20083;-51
2022/06/12 08:29:09;;;;;;;4.65;3.63;;;23.80;44.10;;;;;;5007762;28;20498;-56
2022/06/12 08:31:48;;;;;;;4.13;3.83;;;23.70;45.80;;;;;;5009400;28;20030;-51
2022/06/12 08:34:22;;;;;;;4.15;3.70;;;23.60;48.70;;;;;;5026809;28;20021;-57
2022/06/12 08:36:50;;;;;;;5.65;4.03;;;23.40;49.00;;;;;;5028931;28;20164;-53
2022/06/12 08:39:15;;;;;;;5.50;3.95;;;23.40;49.10;;;;;;5007256;28;20489;-50
2022/06/12 08:41:50;;;;;;;7.95;3.38;;;23.60;48.20;;;;;;5018624;28;20057;-54
2022/06/12 08:44:27;;;;;;;3.33;3.03;;;23.70;47.50;;;;;;5000310;28;20405;-56
2022/06/12 08:47:10;;;;;;;4.78;3.55;;;23.90;46.90;;;;;;5026721;28;20032;-56
2022/06/12 08:49:54;;;;;;;4.22;3.25;;;23.80;47.30;;;;;;5028972;28;20017;-56
2022/06/12 08:52:30;;;;;;;3.55;3.25;;;23.80;47.40;;;;;;5009691;28;20025;-56
2022/06/12 08:55:12;;;;;;;3.78;3.28;;;23.80;45.40;;;;;;4989262;28;20069;-52
2022/06/12 08:57:49;;;;;;;5.38;4.38;;;23.70;44.90;;;;;;5012658;28;20034;-57
2022/06/12 09:00:19;;;;;;;5.40;3.83;;;23.60;44.10;;;;;;5011382;28;20117;-56
2022/06/12 09:02:46;;;;;;;5.35;3.75;;;23.60;45.10;;;;;;5002059;28;20041;-57
2022/06/12 09:05:19;;;;;;;5.57;3.80;;;23.80;45.00;;;;;;5027823;28;20551;-55
2022/06/12 09:08:07;;;;;;;4.28;3.47;;;24.00;42.90;;;;;;4998040;28;20125;-56
2022/06/12 09:10:42;;;;;;;4.63;3.42;;;24.00;40.30;;;;;;4998819;28;20118;-54
2022/06/12 09:13:28;;;;;;;4.70;3.07;;;24.00;41.10;;;;;;4992649;28;20046;-51
2022/06/12 09:16:05;;;;;;;4.45;3.05;;;24.00;35.00;;;;;;5010673;28;20509;-57
2022/06/12 09:19:08;;;;;;;3.45;2.85;;;23.90;37.00;;;;;;5000086;28;20127;-53
2022/06/12 09:21:58;;;;;;;3.95;3.05;;;24.00;33.10;;;;;;5010354;28;20037;-54
2022/06/12 09:24:35;;;;;;;2.70;2.45;;;24.40;29.00;;;;;;5007508;28;20084;-56
2022/06/12 09:27:38;;;;;;;3.38;2.22;;;25.00;31.30;;;;;;5014090;28;20112;-57
2022/06/12 09:30:21;;;;;;;2.83;2.03;;;25.80;28.10;;;;;;5006482;28;20026;-57
2022/06/12 09:33:11;;;;;;;2.65;2.45;;;26.30;27.60;;;;;;5001501;28;20030;-57
2022/06/12 09:35:56;;;;;;;4.05;2.65;;;26.50;27.20;;;;;;4987457;28;20066;-57
2022/06/12 09:39:06;;;;;;;3.40;2.43;;;26.60;27.30;;;;;;5002447;28;20402;-58
2022/06/12 09:41:39;;;;;;;2.75;2.40;;;26.50;24.70;;;;;;4945109;29;20047;-60
2022/06/12 09:44:27;;;;;;;3.38;1.90;;;26.70;27.30;;;;;;4928236;29;20127;-57
2022/06/12 09:47:03;;;;;;;3.47;1.70;;;26.90;22.20;;;;;;4969122;28;20061;-56
2022/06/12 09:49:39;;;;;;;3.03;2.08;;;27.10;24.00;;;;;;5027671;28;20024;-55
2022/06/12 09:52:16;;;;;;;2.92;1.67;;;27.40;22.30;;;;;;5003389;28;20486;-52
2022/06/12 09:55:22;;;;;;;3.70;2.08;;;27.40;20.80;;;;;;4988493;28;20121;-59
2022/06/12 09:58:00;;;;;;;4.57;1.80;;;27.70;18.70;;;;;;4993644;28;20084;-59
2022/06/12 10:00:56;;;;;;;3.22;1.60;;;27.80;19.30;;;;;;4988753;28;20072;-58
2022/06/12 10:03:29;;;;;;;2.33;1.70;;;28.10;17.70;;;;;;4994785;28;20027;-53
2022/06/12 10:06:04;;;;;;;2.17;1.90;;;28.30;20.30;;;;;;5031736;28;20026;-54
2022/06/12 10:08:49;;;;;;;2.90;1.85;;;28.60;19.20;;;;;;5014445;28;20038;-52
2022/06/12 10:11:24;;;;;;;2.42;2.05;;;28.90;17.30;;;;;;5012648;28;20072;-56
2022/06/12 10:14:06;;;;;;;3.75;1.75;;;29.20;17.90;;;;;;4994410;28;20041;-55
2022/06/12 10:16:37;;;;;;;3.25;1.60;;;29.50;16.50;;;;;;5016970;28;20405;-54
2022/06/12 10:19:14;;;;;;;4.03;1.88;;;29.70;16.40;;;;;;4994646;28;20030;-57
2022/06/12 10:21:44;;;;;;;3.03;1.40;;;29.70;14.20;;;;;;5005975;28;20034;-56
2022/06/12 10:24:11;;;;;;;3.70;2.00;;;29.60;15.30;;;;;;5033994;28;20109;-53
2022/06/12 10:26:37;;;;;;;2.78;1.63;;;29.40;13.70;;;;;;5000124;28;20030;-59
2022/06/12 10:29:14;;;;;;;3.95;1.20;;;28.90;14.90;;;;;;5013594;28;20037;-53
2022/06/12 10:31:49;;;;;;;2.78;1.60;;;29.00;13.10;;;;;;5006087;28;20497;-63
2022/06/12 10:34:23;;;;;;;2.97;1.30;;;28.80;14.10;;;;;;5033513;28;20029;-63
2022/06/12 10:36:51;;;;;;;4.07;1.45;;;28.80;14.20;;;;;;4998055;28;20162;-62
2022/06/12 10:39:26;;;;;;;2.53;1.42;;;28.90;13.90;;;;;;5013442;28;20113;-63
2022/06/12 10:41:58;;;;;;;3.00;1.60;;;29.00;13.80;;;;;;5024895;28;20041;-62
2022/06/12 10:44:36;;;;;;;2.67;1.23;;;29.20;14.40;;;;;;5006438;28;20049;-64
2022/06/12 10:47:20;;;;;;;1.92;1.10;;;29.10;14.20;;;;;;5033843;28;20029;-63
2022/06/12 10:49:47;;;;;;;2.47;1.20;;;29.00;13.80;;;;;;5012393;28;20047;-64
2022/06/12 10:52:19;;;;;;;2.55;1.30;;;28.80;13.70;;;;;;5012307;28;20100;-63
2022/06/12 10:54:45;;;;;;;4.00;1.63;;;28.80;13.50;;;;;;4994628;28;20042;-64
2022/06/12 10:57:53;;;;;;;2.90;1.30;;;29.00;12.50;;;;;;4993886;28;20394;-64
2022/06/12 11:00:24;;;;;;;2.83;1.30;;;28.80;11.50;;;;;;5000338;28;20018;-63
2022/06/12 11:03:05;;;;;;;2.83;1.30;;;28.60;11.80;;;;;;5016714;28;20785;-63
2022/06/12 11:05:50;;;;;;;3.22;1.40;;;28.50;11.70;;;;;;5012196;28;20442;-64
2022/06/12 11:08:28;;;;;;;2.10;1.35;;;28.50;9.10;;;;;;4995314;28;20041;-64
2022/06/12 11:11:16;;;;;;;2.78;1.50;;;28.40;11.40;;;;;;5003684;28;20029;-64
2022/06/12 11:14:06;;;;;;;4.05;1.50;;;28.50;9.40;;;;;;5006758;28;20037;-64
2022/06/12 11:16:50;;;;;;;4.07;1.42;;;28.70;10.00;;;;;;5005445;28;20042;-64
2022/06/12 11:19:46;;;;;;;4.97;1.60;;;28.80;10.60;;;;;;5003732;28;20044;-64
2022/06/12 11:22:31;;;;;;;2.55;1.17;;;29.00;9.80;;;;;;4994657;28;20058;-64
2022/06/12 11:25:24;;;;;;;2.55;1.35;;;29.20;10.20;;;;;;4973756;28;20022;-64
2022/06/12 11:28:17;;;;;;;6.28;1.98;;;29.50;9.20;;;;;;5008930;28;20034;-64
2022/06/12 11:30:54;;;;;;;1.90;1.23;;;29.60;9.30;;;;;;5010658;28;20120;-65
2022/06/12 11:33:36;;;;;;;4.47;1.70;;;29.60;9.40;;;;;;4994757;28;20505;-64
2022/06/12 11:36:29;;;;;;;3.15;1.45;;;29.60;9.40;;;;;;5007662;28;20076;-64
2022/06/12 11:39:20;;;;;;;4.35;2.05;;;29.50;9.70;;;;;;5019128;28;20029;-65
2022/06/12 11:42:00;;;;;;;5.18;1.75;;;29.40;9.20;;;;;;4998872;28;20046;-65
2022/06/12 11:44:46;;;;;;;3.63;1.50;;;29.00;9.80;;;;;;5005973;28;20065;-64
2022/06/12 11:47:20;;;;;;;4.38;2.22;;;29.10;10.70;;;;;;5008862;28;20068;-65
2022/06/12 11:50:06;;;;;;;2.13;1.35;;;29.10;10.40;;;;;;5030101;28;20022;-64
2022/06/12 11:52:51;;;;;;;;;;;29.00;9.90;;;;;;5029109;28;20485;-64
2022/06/12 11:55:20;;;;;;;3.38;1.67;;;28.80;8.30;;;;;;5008543;28;19913;-63
2022/06/12 11:58:24;;;;;;;3.00;1.40;;;28.60;10.30;;;;;;5009971;28;20492;-64
2022/06/12 12:01:13;;;;;;;5.63;1.80;;;28.60;10.30;;;;;;5000230;28;20057;-65
2022/06/12 12:03:56;;;;;;;3.92;1.60;;;28.40;11.30;;;;;;4983249;28;20650;-66
2022/06/12 12:06:39;;;;;;;3.47;1.92;;;28.30;11.10;;;;;;5001650;28;20030;-65
2022/06/12 12:09:07;;;;;;;4.78;2.10;;;28.10;11.50;;;;;;4991139;28;20062;-65
2022/06/12 12:11:54;;;;;;;5.45;1.90;;;27.90;12.10;;;;;;5013609;28;20032;-65
2022/06/12 12:14:25;;;;;;;6.47;1.77;;;27.70;12.30;;;;;;4991251;28;20069;-65
2022/06/12 12:16:59;;;;;;;2.38;1.50;;;27.80;12.60;;;;;;5005148;28;20052;-64
2022/06/12 12:19:35;;;;;;;4.95;1.70;;;27.90;12.20;;;;;;4990580;28;20111;-64
2022/06/12 12:22:15;;;;;;;3.80;1.58;;;27.90;11.00;;;;;;5019432;28;20104;-65
2022/06/12 12:24:49;;;;;;;2.85;1.60;;;27.90;11.50;;;;;;4990866;28;20411;-65
2022/06/12 12:27:30;;;;;;;4.47;1.85;;;28.00;11.00;;;;;;5008505;28;20026;-65
2022/06/12 12:29:58;;;;;;;5.00;1.85;;;27.90;10.80;;;;;;4989653;28;20058;-66
2022/06/12 12:32:23;;;;;;;3.65;1.90;;;27.90;11.10;;;;;;5030087;28;20021;-65
2022/06/12 12:34:55;;;;;;;4.47;1.75;;;27.80;11.10;;;;;;5010698;28;20030;-64
2022/06/12 12:43:02;;;;;;;3.03;1.33;;;27.30;11.50;;;;;;5007538;28;20136;-64
2022/06/12 12:45:33;;;;;;;3.50;1.73;;;27.40;11.40;;;;;;4986583;28;20039;-65
2022/06/12 12:48:04;;;;;;;4.43;1.70;;;27.60;11.50;;;;;;5022175;28;20034;-65
2022/06/12 12:50:46;;;;;;;5.45;1.67;;;27.60;11.20;;;;;;4992963;28;20502;-65
2022/06/12 12:53:29;;;;;;;4.07;1.70;;;27.60;10.70;;;;;;4981609;28;20041;-66
2022/06/12 12:56:06;;;;;;;3.83;1.42;;;27.50;10.70;;;;;;4980498;28;20037;-64
2022/06/12 12:58:36;;;;;;;3.85;1.40;;;27.30;11.40;;;;;;5005802;28;20026;-63
2022/06/12 13:01:19;;;;;;;3.28;1.50;;;27.30;11.10;;;;;;5004555;28;20026;-53
2022/06/12 13:04:06;;;;;;;4.22;1.80;;;27.20;11.30;;;;;;5002502;28;20045;-55
2022/06/12 13:06:46;;;;;;;5.18;1.90;;;27.20;10.90;;;;;;5005885;28;20037;-54
2022/06/12 13:09:40;;;;;;;4.53;1.42;;;27.20;10.80;;;;;;5002666;28;20729;-62
2022/06/12 13:12:21;;;;;;;4.35;2.22;;;27.00;9.50;;;;;;4983065;28;20654;-63
2022/06/12 13:15:09;;;;;;;5.30;1.85;;;26.80;10.20;;;;;;4998401;28;20056;-62
2022/06/12 13:18:08;;;;;;;4.13;1.77;;;26.80;8.70;;;;;;5002100;28;20177;-62
2022/06/12 13:20:39;;;;;;;2.45;1.30;;;26.90;7.30;;;;;;4987314;28;20409;-63
2022/06/12 13:23:23;;;;;;;4.65;1.88;;;27.00;8.80;;;;;;5005227;28;20434;-62
2022/06/12 13:25:53;;;;;;;5.18;2.08;;;27.10;7.50;;;;;;5002538;28;20044;-63
2022/06/12 13:28:23;;;;;;;7.38;2.20;;;27.20;8.00;;;;;;5025795;28;20029;-60
2022/06/12 13:30:49;;;;;;;4.18;1.90;;;27.30;7.60;;;;;;5023897;28;20032;-61
2022/06/12 13:33:28;;;;;;;4.70;1.70;;;27.30;8.00;;;;;;5007478;28;20033;-60
2022/06/12 13:36:03;;;;;;;2.35;2.00;;;27.30;8.00;;;;;;4990421;28;20034;-61
2022/06/12 13:38:45;;;;;;;3.35;1.80;;;27.20;8.30;;;;;;4972200;28;20081;-63